Minerva Concert — SVWC — position and weather

sailwx.info

Track history (hours):
 
Tides and Currents Weather Stations Pressure Air Temp Water Temp Dewpoint Dewpoint Depression Visibility Wind Speed Wind Dir Waves Ship Positions

Minerva Concert

Last reported at 2015-Feb-18 10:15 UTC. Time now 2015-Mar-01 15:13 UTC.
Position N 40°10' W 032°14'.
Warning: this ship's position is 11 days out of date.

Length 241 m; draft 8.2 m.

Type: Tanker. MMSI: 240110000.

Date/timePositionNaut miles runAvg speedWind from/ knotsBaromVisibWave heightAir tempDewpointWater temp
2015-Feb-18 10:15N 40°10' W 032°14'  
2015-Feb-12 12:20N 50°09' W 002°01'31 9.4
2015-Feb-12 09:05N 50°18' W 001°15'911.6
2015-Feb-12 08:18N 50°20' W 001°01'912.1
2015-Feb-12 07:34N 50°23' W 000°48'1212.0
2015-Feb-12 06:33N 50°28' W 000°31'1111.2
2015-Feb-12 05:33N 50°30' W 000°13'1310.8
2015-Feb-12 04:21N 50°33' E 000°07'810.2
2015-Feb-12 03:34N 50°35' E 000°19'10 9.7
2015-Feb-12 02:34N 50°38' E 000°33'9 9.2
2015-Feb-12 01:33N 50°42' E 000°46'10 9.9
2015-Feb-12 00:34N 50°48' E 000°59'1110.9
2015-Feb-11 23:33N 50°55' E 001°12'1212.0
2015-Feb-11 22:33N 51°04' E 001°25'1111.3
2015-Feb-11 21:34N 51°10' E 001°40'1010.1
2015-Feb-11 20:34N 51°18' E 001°50'9 9.1
2015-Feb-11 19:34N 51°27' E 001°56'9 8.7
2015-Feb-11 18:34N 51°33' E 002°05'9 8.6
2015-Feb-11 17:33N 51°40' E 002°14'9 8.8
2015-Feb-11 16:34N 51°46' E 002°24'10 9.5
2015-Feb-11 15:34N 51°53' E 002°34'10 9.9
2015-Feb-11 14:34N 52°01' E 002°44'7 5.6
2015-Feb-11 13:22N 52°07' E 002°48'0 0.0
2015-Feb-11 12:31N 52°07' E 002°48'0 0.1
2015-Feb-11 11:31N 52°07' E 002°48'0 0.1
2015-Feb-11 10:31N 52°07' E 002°48'0 0.1
2015-Feb-11 09:31N 52°07' E 002°48'0 0.1
2015-Feb-11 08:31N 52°07' E 002°48'0 0.0
2015-Feb-11 07:31N 52°07' E 002°48'0 0.0
2015-Feb-11 06:28N 52°07' E 002°48'0 0.0
2015-Feb-11 05:28N 52°07' E 002°48'0 0.1
2015-Feb-11 04:31N 52°07' E 002°48'0 0.1
2015-Feb-11 03:28N 52°07' E 002°48'0 0.1
2015-Feb-11 02:31N 52°07' E 002°48'0 0.0
2015-Feb-11 01:31N 52°07' E 002°48'0 0.0
2015-Feb-11 00:31N 52°07' E 002°48'4 4.1
2015-Feb-10 23:33N 52°06' E 002°54'10 9.9
2015-Feb-10 22:33N 52°03' E 003°09'1110.5
2015-Feb-10 21:34N 52°04' E 003°26'1010.1
2015-Feb-10 20:33N 52°03' E 003°43'8 7.6
2015-Feb-10 19:33N 52°03' E 003°55'9 9.3
2015-Feb-10 18:33N 51°57' E 004°08'0 0.3
2015-Feb-10 17:32N 51°57' E 004°08'0 0.0
2015-Feb-10 16:32N 51°57' E 004°08'0 0.0
2015-Feb-10 15:32N 51°57' E 004°08'0 0.0
2015-Feb-10 14:32N 51°57' E 004°08'0 0.0
2015-Feb-10 13:32N 51°57' E 004°08'0 0.0
2015-Feb-10 12:32N 51°57' E 004°08'0 0.0
2015-Feb-10 11:32N 51°57' E 004°08'0 0.0
2015-Feb-10 10:32N 51°57' E 004°08'0 0.0
2015-Feb-10 09:32N 51°57' E 004°08'0 0.0
2015-Feb-10 08:32N 51°57' E 004°08'0 0.0
2015-Feb-10 07:32N 51°57' E 004°08'0 0.0
2015-Feb-10 06:32N 51°57' E 004°08'0 0.0
2015-Feb-10 05:32N 51°57' E 004°08'0 0.0
2015-Feb-10 04:32N 51°57' E 004°08'0 0.0
2015-Feb-10 03:32N 51°57' E 004°08'0 0.0
2015-Feb-10 02:29N 51°57' E 004°08'0 0.0
2015-Feb-10 01:32N 51°57' E 004°08'0 0.0
2015-Feb-10 00:32N 51°57' E 004°08'0 0.0
2015-Feb-09 23:32N 51°57' E 004°08'0 0.0
2015-Feb-09 22:32N 51°57' E 004°08'0 0.0
2015-Feb-09 21:32N 51°57' E 004°08'0 0.0
2015-Feb-09 20:32N 51°57' E 004°08'0 0.1
2015-Feb-09 19:32N 51°57' E 004°08'2 1.8
2015-Feb-09 18:33N 51°58' E 004°05'3 3.4
2015-Feb-09 17:32N 51°58' E 003°59'0 0.0
2015-Feb-09 16:32N 51°58' E 003°59'0 0.0
2015-Feb-09 15:32N 51°58' E 003°59'0 0.0
2015-Feb-09 14:32N 51°58' E 003°59'0 0.0
2015-Feb-09 13:32N 51°58' E 003°59'0 0.0
2015-Feb-09 12:32N 51°58' E 003°59'0 0.0
2015-Feb-09 11:29N 51°58' E 003°59'0 0.0
2015-Feb-09 10:32N 51°58' E 003°59'0 0.0
2015-Feb-09 09:32N 51°58' E 003°59'0 0.0
2015-Feb-09 08:32N 51°58' E 003°59'0 0.0
2015-Feb-09 07:32N 51°58' E 003°59'0 0.0
2015-Feb-09 06:32N 51°58' E 003°59'0 0.0
2015-Feb-09 05:29N 51°58' E 003°59'0 0.0
2015-Feb-09 04:32N 51°58' E 003°59'0 0.0
2015-Feb-09 03:32N 51°58' E 003°59'0 0.0
2015-Feb-09 02:32N 51°58' E 003°59'0 0.0
2015-Feb-09 01:32N 51°58' E 003°59'0 0.0
2015-Feb-09 00:32N 51°58' E 003°59'0 0.0
2015-Feb-08 23:32N 51°58' E 003°59'0 0.0
2015-Feb-08 22:32N 51°58' E 003°59'0 0.0
2015-Feb-08 21:32N 51°58' E 003°59'0 0.0
2015-Feb-08 20:29N 51°58' E 003°59'0 0.0
2015-Feb-08 19:32N 51°58' E 003°59'0 0.0
2015-Feb-08 18:32N 51°58' E 003°59'0 0.0
2015-Feb-08 17:32N 51°58' E 003°59'0 0.0
2015-Feb-08 16:32N 51°58' E 003°59'0 0.0
2015-Feb-08 15:32N 51°58' E 003°59'0 0.0
2015-Feb-08 14:32N 51°58' E 003°59'0 0.0
2015-Feb-08 13:32N 51°58' E 003°59'0 0.0
2015-Feb-08 12:32N 51°58' E 003°59'0 0.0
2015-Feb-08 11:32N 51°58' E 003°59'0 0.0
2015-Feb-08 10:32N 51°58' E 003°59'  
Track history (hours):
 
Tides and Currents Weather Stations Pressure Air Temp Water Temp Dewpoint Dewpoint Depression Visibility Wind Speed Wind Dir Waves Ship Positions

Minerva Concert

Last reported at 2015-Feb-18 10:15 UTC. Time now 2015-Mar-01 15:13 UTC.
Position N 40°10' W 032°14'.
Warning: this ship's position is 11 days out of date.

Length 241 m; draft 8.2 m.

Type: Tanker. MMSI: 240110000.

Date/timePositionNaut miles runAvg speedWind from/ knotsBaromVisibWave heightAir tempDewpointWater temp
2015-Feb-18 10:15N 40°10' W 032°14'  
2015-Feb-12 12:20N 50°09' W 002°01'31 9.4
2015-Feb-12 09:05N 50°18' W 001°15'911.6
2015-Feb-12 08:18N 50°20' W 001°01'912.1
2015-Feb-12 07:34N 50°23' W 000°48'1212.0
2015-Feb-12 06:33N 50°28' W 000°31'1111.2
2015-Feb-12 05:33N 50°30' W 000°13'1310.8
2015-Feb-12 04:21N 50°33' E 000°07'810.2
2015-Feb-12 03:34N 50°35' E 000°19'10 9.7
2015-Feb-12 02:34N 50°38' E 000°33'9 9.2
2015-Feb-12 01:33N 50°42' E 000°46'10 9.9
2015-Feb-12 00:34N 50°48' E 000°59'1110.9
2015-Feb-11 23:33N 50°55' E 001°12'1212.0
2015-Feb-11 22:33N 51°04' E 001°25'1111.3
2015-Feb-11 21:34N 51°10' E 001°40'1010.1
2015-Feb-11 20:34N 51°18' E 001°50'9 9.1
2015-Feb-11 19:34N 51°27' E 001°56'9 8.7
2015-Feb-11 18:34N 51°33' E 002°05'9 8.6
2015-Feb-11 17:33N 51°40' E 002°14'9 8.8
2015-Feb-11 16:34N 51°46' E 002°24'10 9.5
2015-Feb-11 15:34N 51°53' E 002°34'10 9.9
2015-Feb-11 14:34N 52°01' E 002°44'7 5.6
2015-Feb-11 13:22N 52°07' E 002°48'0 0.0
2015-Feb-11 12:31N 52°07' E 002°48'0 0.1
2015-Feb-11 11:31N 52°07' E 002°48'0 0.1
2015-Feb-11 10:31N 52°07' E 002°48'0 0.1
2015-Feb-11 09:31N 52°07' E 002°48'0 0.1
2015-Feb-11 08:31N 52°07' E 002°48'0 0.0
2015-Feb-11 07:31N 52°07' E 002°48'0 0.0
2015-Feb-11 06:28N 52°07' E 002°48'0 0.0
2015-Feb-11 05:28N 52°07' E 002°48'0 0.1
2015-Feb-11 04:31N 52°07' E 002°48'0 0.1
2015-Feb-11 03:28N 52°07' E 002°48'0 0.1
2015-Feb-11 02:31N 52°07' E 002°48'0 0.0
2015-Feb-11 01:31N 52°07' E 002°48'0 0.0
2015-Feb-11 00:31N 52°07' E 002°48'4 4.1
2015-Feb-10 23:33N 52°06' E 002°54'10 9.9
2015-Feb-10 22:33N 52°03' E 003°09'1110.5
2015-Feb-10 21:34N 52°04' E 003°26'1010.1
2015-Feb-10 20:33N 52°03' E 003°43'8 7.6
2015-Feb-10 19:33N 52°03' E 003°55'9 9.3
2015-Feb-10 18:33N 51°57' E 004°08'0 0.3
2015-Feb-10 17:32N 51°57' E 004°08'0 0.0
2015-Feb-10 16:32N 51°57' E 004°08'0 0.0
2015-Feb-10 15:32N 51°57' E 004°08'0 0.0
2015-Feb-10 14:32N 51°57' E 004°08'0 0.0
2015-Feb-10 13:32N 51°57' E 004°08'0 0.0
2015-Feb-10 12:32N 51°57' E 004°08'0 0.0
2015-Feb-10 11:32N 51°57' E 004°08'0 0.0
2015-Feb-10 10:32N 51°57' E 004°08'0 0.0
2015-Feb-10 09:32N 51°57' E 004°08'0 0.0
2015-Feb-10 08:32N 51°57' E 004°08'0 0.0
2015-Feb-10 07:32N 51°57' E 004°08'0 0.0
2015-Feb-10 06:32N 51°57' E 004°08'0 0.0
2015-Feb-10 05:32N 51°57' E 004°08'0 0.0
2015-Feb-10 04:32N 51°57' E 004°08'0 0.0
2015-Feb-10 03:32N 51°57' E 004°08'0 0.0
2015-Feb-10 02:29N 51°57' E 004°08'0 0.0
2015-Feb-10 01:32N 51°57' E 004°08'0 0.0
2015-Feb-10 00:32N 51°57' E 004°08'0 0.0
2015-Feb-09 23:32N 51°57' E 004°08'0 0.0
2015-Feb-09 22:32N 51°57' E 004°08'0 0.0
2015-Feb-09 21:32N 51°57' E 004°08'0 0.0
2015-Feb-09 20:32N 51°57' E 004°08'0 0.1
2015-Feb-09 19:32N 51°57' E 004°08'2 1.8
2015-Feb-09 18:33N 51°58' E 004°05'3 3.4
2015-Feb-09 17:32N 51°58' E 003°59'0 0.0
2015-Feb-09 16:32N 51°58' E 003°59'0 0.0
2015-Feb-09 15:32N 51°58' E 003°59'0 0.0
2015-Feb-09 14:32N 51°58' E 003°59'0 0.0
2015-Feb-09 13:32N 51°58' E 003°59'0 0.0
2015-Feb-09 12:32N 51°58' E 003°59'0 0.0
2015-Feb-09 11:29N 51°58' E 003°59'0 0.0
2015-Feb-09 10:32N 51°58' E 003°59'0 0.0
2015-Feb-09 09:32N 51°58' E 003°59'0 0.0
2015-Feb-09 08:32N 51°58' E 003°59'0 0.0
2015-Feb-09 07:32N 51°58' E 003°59'0 0.0
2015-Feb-09 06:32N 51°58' E 003°59'0 0.0
2015-Feb-09 05:29N 51°58' E 003°59'0 0.0
2015-Feb-09 04:32N 51°58' E 003°59'0 0.0
2015-Feb-09 03:32N 51°58' E 003°59'0 0.0
2015-Feb-09 02:32N 51°58' E 003°59'0 0.0
2015-Feb-09 01:32N 51°58' E 003°59'0 0.0
2015-Feb-09 00:32N 51°58' E 003°59'0 0.0
2015-Feb-08 23:32N 51°58' E 003°59'0 0.0
2015-Feb-08 22:32N 51°58' E 003°59'0 0.0
2015-Feb-08 21:32N 51°58' E 003°59'0 0.0
2015-Feb-08 20:29N 51°58' E 003°59'0 0.0
2015-Feb-08 19:32N 51°58' E 003°59'0 0.0
2015-Feb-08 18:32N 51°58' E 003°59'0 0.0
2015-Feb-08 17:32N 51°58' E 003°59'0 0.0
2015-Feb-08 16:32N 51°58' E 003°59'0 0.0
2015-Feb-08 15:32N 51°58' E 003°59'0 0.0
2015-Feb-08 14:32N 51°58' E 003°59'0 0.0
2015-Feb-08 13:32N 51°58' E 003°59'0 0.0
2015-Feb-08 12:32N 51°58' E 003°59'0 0.0
2015-Feb-08 11:32N 51°58' E 003°59'0 0.0
2015-Feb-08 10:32N 51°58' E 003°59'  

Dump ship's entire track history